sensor_id;sensor_type;location;lat;lon;timestamp;pressure;altitude;pressure_sealevel;temperature;humidity
81155;BME280;70631;50.436;7.826;2023-09-18T00:00:08;98386.38;;;19.59;74.63
81155;BME280;70631;50.436;7.826;2023-09-18T00:02:38;98380.81;;;19.54;74.83
81155;BME280;70631;50.436;7.826;2023-09-18T00:05:03;98379.31;;;19.51;74.80
81155;BME280;70631;50.436;7.826;2023-09-18T00:07:29;98378.94;;;19.48;74.64
81155;BME280;70631;50.436;7.826;2023-09-18T00:09:54;98369.38;;;19.45;74.28
81155;BME280;70631;50.436;7.826;2023-09-18T00:12:19;98367.75;;;19.44;74.24
81155;BME280;70631;50.436;7.826;2023-09-18T00:14:48;98359.47;;;19.39;74.42
81155;BME280;70631;50.436;7.826;2023-09-18T00:17:14;98362.41;;;19.38;74.46
81155;BME280;70631;50.436;7.826;2023-09-18T00:19:39;98356.63;;;19.34;74.67
81155;BME280;70631;50.436;7.826;2023-09-18T00:22:04;98354.97;;;19.33;74.58
81155;BME280;70631;50.436;7.826;2023-09-18T00:24:30;98346.25;;;19.31;74.71
81155;BME280;70631;50.436;7.826;2023-09-18T00:26:55;98342.72;;;19.31;74.69
81155;BME280;70631;50.436;7.826;2023-09-18T00:29:20;98342.31;;;19.27;74.99
81155;BME280;70631;50.436;7.826;2023-09-18T00:31:46;98347.56;;;19.22;75.27
81155;BME280;70631;50.436;7.826;2023-09-18T00:34:11;98347.56;;;19.22;75.08
81155;BME280;70631;50.436;7.826;2023-09-18T00:36:36;98344.03;;;19.21;74.92
81155;BME280;70631;50.436;7.826;2023-09-18T00:39:01;98343.41;;;19.19;74.93
81155;BME280;70631;50.436;7.826;2023-09-18T00:41:28;98340.13;;;19.17;74.69
81155;BME280;70631;50.436;7.826;2023-09-18T00:43:53;98332.25;;;19.16;74.97
81155;BME280;70631;50.436;7.826;2023-09-18T00:46:19;98323.31;;;19.15;74.81
81155;BME280;70631;50.436;7.826;2023-09-18T00:48:45;98323.53;;;19.14;74.96
81155;BME280;70631;50.436;7.826;2023-09-18T00:51:10;98319.19;;;19.13;74.83
81155;BME280;70631;50.436;7.826;2023-09-18T00:53:37;98316.91;;;19.10;75.07
81155;BME280;70631;50.436;7.826;2023-09-18T00:56:03;98315.28;;;19.09;75.13
81155;BME280;70631;50.436;7.826;2023-09-18T00:58:29;98314.63;;;19.07;75.38
81155;BME280;70631;50.436;7.826;2023-09-18T01:00:54;98310.28;;;19.06;75.34
81155;BME280;70631;50.436;7.826;2023-09-18T01:03:21;98317.56;;;19.05;75.29
81155;BME280;70631;50.436;7.826;2023-09-18T01:05:47;98309.06;;;19.02;75.30
81155;BME280;70631;50.436;7.826;2023-09-18T01:08:13;98303.28;;;18.98;75.17
81155;BME280;70631;50.436;7.826;2023-09-18T01:11:25;98302.13;;;18.87;75.13
81155;BME280;70631;50.436;7.826;2023-09-18T01:13:58;98305.00;;;18.92;75.38
81155;BME280;70631;50.436;7.826;2023-09-18T01:16:33;98305.84;;;18.86;75.59
81155;BME280;70631;50.436;7.826;2023-09-18T01:18:59;98319.16;;;18.88;75.24
81155;BME280;70631;50.436;7.826;2023-09-18T01:21:27;98319.16;;;18.88;75.35
81155;BME280;70631;50.436;7.826;2023-09-18T01:23:53;98315.81;;;18.86;75.47
81155;BME280;70631;50.436;7.826;2023-09-18T01:26:18;98314.59;;;18.88;75.56
81155;BME280;70631;50.436;7.826;2023-09-18T01:28:43;98319.97;;;18.88;75.27
81155;BME280;70631;50.436;7.826;2023-09-18T01:31:09;98312.28;;;18.92;74.94
81155;BME280;70631;50.436;7.826;2023-09-18T01:33:34;98314.75;;;18.93;74.96
81155;BME280;70631;50.436;7.826;2023-09-18T01:36:01;98311.59;;;18.97;75.34
81155;BME280;70631;50.436;7.826;2023-09-18T01:38:28;98312.22;;;18.99;75.23
81155;BME280;70631;50.436;7.826;2023-09-18T01:40:53;98309.06;;;19.02;75.39
81155;BME280;70631;50.436;7.826;2023-09-18T01:43:19;98311.09;;;19.06;75.08
81155;BME280;70631;50.436;7.826;2023-09-18T01:45:45;98304.25;;;19.10;74.84
81155;BME280;70631;50.436;7.826;2023-09-18T01:48:11;98317.31;;;19.13;75.03
81155;BME280;70631;50.436;7.826;2023-09-18T01:50:36;98320.63;;;19.15;75.04
81155;BME280;70631;50.436;7.826;2023-09-18T01:53:02;98362.94;;;19.21;75.43
81155;BME280;70631;50.436;7.826;2023-09-18T01:55:28;98414.03;;;19.23;76.03
81155;BME280;70631;50.436;7.826;2023-09-18T01:57:55;98401.56;;;19.22;76.31
81155;BME280;70631;50.436;7.826;2023-09-18T02:00:20;98388.69;;;19.24;76.40
81155;BME280;70631;50.436;7.826;2023-09-18T02:02:46;98373.06;;;19.26;76.90
81155;BME280;70631;50.436;7.826;2023-09-18T02:05:11;98368.88;;;19.30;76.88
81155;BME280;70631;50.436;7.826;2023-09-18T02:07:36;98370.94;;;19.35;76.87
81155;BME280;70631;50.436;7.826;2023-09-18T02:10:02;98374.03;;;19.38;76.74
81155;BME280;70631;50.436;7.826;2023-09-18T02:12:28;98371.94;;;19.40;76.84
81155;BME280;70631;50.436;7.826;2023-09-18T02:14:53;98361.28;;;19.45;76.95
81155;BME280;70631;50.436;7.826;2023-09-18T02:17:18;98363.53;;;19.48;77.13
81155;BME280;70631;50.436;7.826;2023-09-18T02:19:45;98343.81;;;19.48;77.17
81155;BME280;70631;50.436;7.826;2023-09-18T02:22:10;98334.72;;;19.42;77.85
81155;BME280;70631;50.436;7.826;2023-09-18T02:24:36;98320.53;;;19.22;78.28
81155;BME280;70631;50.436;7.826;2023-09-18T02:27:04;98292.09;;;18.95;79.35
81155;BME280;70631;50.436;7.826;2023-09-18T02:29:30;98282.88;;;18.77;80.31
81155;BME280;70631;50.436;7.826;2023-09-18T02:31:55;98262.19;;;18.71;80.80
81155;BME280;70631;50.436;7.826;2023-09-18T02:34:21;98257.78;;;18.77;80.81
81155;BME280;70631;50.436;7.826;2023-09-18T02:36:46;98249.44;;;18.78;81.16
81155;BME280;70631;50.436;7.826;2023-09-18T02:39:12;98239.88;;;18.82;81.08
81155;BME280;70631;50.436;7.826;2023-09-18T02:41:37;98230.72;;;18.83;81.26
81155;BME280;70631;50.436;7.826;2023-09-18T02:44:02;98223.84;;;18.87;81.17
81155;BME280;70631;50.436;7.826;2023-09-18T02:46:28;98213.66;;;18.89;81.58
81155;BME280;70631;50.436;7.826;2023-09-18T02:48:54;98203.84;;;18.95;81.24
81155;BME280;70631;50.436;7.826;2023-09-18T02:51:19;98211.94;;;18.95;81.75
81155;BME280;70631;50.436;7.826;2023-09-18T02:53:44;98215.53;;;18.89;81.86
81155;BME280;70631;50.436;7.826;2023-09-18T02:56:10;98226.16;;;18.84;82.12
81155;BME280;70631;50.436;7.826;2023-09-18T02:58:35;98232.22;;;18.79;82.33
81155;BME280;70631;50.436;7.826;2023-09-18T03:01:01;98225.00;;;18.73;82.32
81155;BME280;70631;50.436;7.826;2023-09-18T03:03:28;98232.50;;;18.71;82.52
81155;BME280;70631;50.436;7.826;2023-09-18T03:06:00;98232.75;;;18.63;82.67
81155;BME280;70631;50.436;7.826;2023-09-18T03:08:25;98238.34;;;18.68;82.52
81155;BME280;70631;50.436;7.826;2023-09-18T03:10:50;98224.41;;;18.71;82.47
81155;BME280;70631;50.436;7.826;2023-09-18T03:13:16;98231.00;;;18.75;82.50
81155;BME280;70631;50.436;7.826;2023-09-18T03:15:44;98238.28;;;18.75;82.30
81155;BME280;70631;50.436;7.826;2023-09-18T03:18:11;98246.97;;;18.77;82.52
81155;BME280;70631;50.436;7.826;2023-09-18T03:20:36;98242.00;;;18.74;82.26
81155;BME280;70631;50.436;7.826;2023-09-18T03:23:02;98258.44;;;18.72;82.54
81155;BME280;70631;50.436;7.826;2023-09-18T03:25:28;98262.19;;;18.71;82.70
81155;BME280;70631;50.436;7.826;2023-09-18T03:27:54;98257.38;;;18.73;82.61
81155;BME280;70631;50.436;7.826;2023-09-18T03:30:21;98255.72;;;18.72;82.24
81155;BME280;70631;50.436;7.826;2023-09-18T03:32:47;98253.19;;;18.77;82.65
81155;BME280;70631;50.436;7.826;2023-09-18T03:35:13;98256.06;;;18.82;82.55
81155;BME280;70631;50.436;7.826;2023-09-18T03:37:50;98239.03;;;18.82;82.45
81155;BME280;70631;50.436;7.826;2023-09-18T03:40:16;98242.75;;;18.87;82.48
81155;BME280;70631;50.436;7.826;2023-09-18T03:42:41;98238.19;;;18.88;nan
81155;BME280;70631;50.436;7.826;2023-09-18T03:45:07;98247.72;;;18.90;82.61
81155;BME280;70631;50.436;7.826;2023-09-18T03:47:34;98254.31;;;18.95;82.71
81155;BME280;70631;50.436;7.826;2023-09-18T03:50:00;98251.78;;;19.00;82.38
81155;BME280;70631;50.436;7.826;2023-09-18T03:52:26;98244.66;;;19.05;82.11
81155;BME280;70631;50.436;7.826;2023-09-18T03:54:52;98243.19;;;19.09;81.98
81155;BME280;70631;50.436;7.826;2023-09-18T03:57:17;98236.75;;;19.10;82.05
81155;BME280;70631;50.436;7.826;2023-09-18T03:59:43;98241.91;;;19.12;82.18
81155;BME280;70631;50.436;7.826;2023-09-18T04:02:08;98240.03;;;19.12;81.75
81155;BME280;70631;50.436;7.826;2023-09-18T04:04:33;98233.38;;;19.15;81.68
81155;BME280;70631;50.436;7.826;2023-09-18T04:06:58;98231.72;;;19.14;81.53
81155;BME280;70631;50.436;7.826;2023-09-18T04:09:24;98227.75;;;19.16;81.70
81155;BME280;70631;50.436;7.826;2023-09-18T04:11:49;98227.53;;;19.18;81.61
81155;BME280;70631;50.436;7.826;2023-09-18T04:14:15;98226.25;;;19.20;81.59
81155;BME280;70631;50.436;7.826;2023-09-18T04:16:40;98221.66;;;19.21;81.42
81155;BME280;70631;50.436;7.826;2023-09-18T04:19:07;98230.81;;;19.20;81.22
81155;BME280;70631;50.436;7.826;2023-09-18T04:21:32;98232.31;;;19.16;81.21
81155;BME280;70631;50.436;7.826;2023-09-18T04:23:57;98228.41;;;19.12;81.48
81155;BME280;70631;50.436;7.826;2023-09-18T04:26:27;98211.63;;;19.10;81.36
81155;BME280;70631;50.436;7.826;2023-09-18T04:29:01;98199.75;;;19.11;81.23
81155;BME280;70631;50.436;7.826;2023-09-18T04:31:27;98186.88;;;19.13;81.40
81155;BME280;70631;50.436;7.826;2023-09-18T04:33:53;98174.88;;;19.09;81.40
81155;BME280;70631;50.436;7.826;2023-09-18T04:36:19;98169.88;;;19.06;81.29
81155;BME280;70631;50.436;7.826;2023-09-18T04:38:44;98182.56;;;19.05;81.44
81155;BME280;70631;50.436;7.826;2023-09-18T04:41:10;98168.22;;;19.05;81.31
81155;BME280;70631;50.436;7.826;2023-09-18T04:43:39;98154.72;;;19.05;81.16
81155;BME280;70631;50.436;7.826;2023-09-18T04:46:04;98151.44;;;19.03;81.21
81155;BME280;70631;50.436;7.826;2023-09-18T04:48:31;98140.84;;;19.01;81.27
81155;BME280;70631;50.436;7.826;2023-09-18T04:50:57;98143.19;;;18.98;81.33
81155;BME280;70631;50.436;7.826;2023-09-18T04:53:22;98134.63;;;19.01;81.57
81155;BME280;70631;50.436;7.826;2023-09-18T04:55:47;98130.88;;;19.02;81.44
81155;BME280;70631;50.436;7.826;2023-09-18T04:58:16;98123.75;;;19.07;81.76
81155;BME280;70631;50.436;7.826;2023-09-18T05:00:42;98134.38;;;19.09;81.28
81155;BME280;70631;50.436;7.826;2023-09-18T05:03:07;98117.94;;;19.10;81.47
81155;BME280;70631;50.436;7.826;2023-09-18T05:05:34;98115.00;;;19.12;81.43
81155;BME280;70631;50.436;7.826;2023-09-18T05:08:01;98129.94;;;19.14;81.19
81155;BME280;70631;50.436;7.826;2023-09-18T05:10:26;98151.31;;;19.16;81.36
81155;BME280;70631;50.436;7.826;2023-09-18T05:12:51;98154.47;;;19.13;81.34
81155;BME280;70631;50.436;7.826;2023-09-18T05:15:23;98179.00;;;19.11;81.39
81155;BME280;70631;50.436;7.826;2023-09-18T05:17:50;98180.63;;;19.12;81.49
81155;BME280;70631;50.436;7.826;2023-09-18T05:20:17;98196.63;;;19.14;81.34
81155;BME280;70631;50.436;7.826;2023-09-18T05:22:44;98201.19;;;19.13;81.27
81155;BME280;70631;50.436;7.826;2023-09-18T05:25:10;98205.91;;;19.18;81.37
81155;BME280;70631;50.436;7.826;2023-09-18T05:27:36;98212.28;;;19.23;81.21
81155;BME280;70631;50.436;7.826;2023-09-18T05:30:15;98218.28;;;19.26;80.93
81155;BME280;70631;50.436;7.826;2023-09-18T05:32:42;98233.22;;;19.28;80.69
81155;BME280;70631;50.436;7.826;2023-09-18T05:35:09;98226.78;;;19.29;80.94
81155;BME280;70631;50.436;7.826;2023-09-18T05:37:39;98225.94;;;19.29;80.83
81155;BME280;70631;50.436;7.826;2023-09-18T05:40:06;98223.19;;;19.35;80.87
81155;BME280;70631;50.436;7.826;2023-09-18T05:42:34;98214.88;;;19.37;80.87
81155;BME280;70631;50.436;7.826;2023-09-18T05:44:59;98217.13;;;19.40;80.92
81155;BME280;70631;50.436;7.826;2023-09-18T05:47:25;98199.63;;;19.42;80.60
81155;BME280;70631;50.436;7.826;2023-09-18T05:49:50;98200.00;;;19.46;80.36
81155;BME280;70631;50.436;7.826;2023-09-18T05:52:16;98201.44;;;19.48;80.22
81155;BME280;70631;50.436;7.826;2023-09-18T05:54:41;98190.84;;;19.53;80.09
81155;BME280;70631;50.436;7.826;2023-09-18T05:57:06;98196.38;;;19.59;79.88
81155;BME280;70631;50.436;7.826;2023-09-18T05:59:32;98198.41;;;19.63;79.37
81155;BME280;70631;50.436;7.826;2023-09-18T06:01:57;98212.88;;;19.69;79.33
81155;BME280;70631;50.436;7.826;2023-09-18T06:04:22;98222.81;;;19.75;79.06
81155;BME280;70631;50.436;7.826;2023-09-18T06:06:48;98220.25;;;19.80;78.98
81155;BME280;70631;50.436;7.826;2023-09-18T06:09:14;98215.44;;;19.82;78.67
81155;BME280;70631;50.436;7.826;2023-09-18T06:11:39;98208.28;;;19.88;78.53
81155;BME280;70631;50.436;7.826;2023-09-18T06:14:04;98206.19;;;19.90;78.68
81155;BME280;70631;50.436;7.826;2023-09-18T06:16:30;98183.94;;;19.88;77.78
81155;BME280;70631;50.436;7.826;2023-09-18T06:18:56;98195.13;;;19.91;78.02
81155;BME280;70631;50.436;7.826;2023-09-18T06:21:21;98192.44;;;19.91;77.91
81155;BME280;70631;50.436;7.826;2023-09-18T06:23:46;98203.25;;;19.91;77.96
81155;BME280;70631;50.436;7.826;2023-09-18T06:26:12;98215.09;;;19.90;77.89
81155;BME280;70631;50.436;7.826;2023-09-18T06:28:37;98207.00;;;19.90;77.30
81155;BME280;70631;50.436;7.826;2023-09-18T06:31:03;98196.78;;;19.92;77.71
81155;BME280;70631;50.436;7.826;2023-09-18T06:33:28;98187.63;;;19.93;77.43
81155;BME280;70631;50.436;7.826;2023-09-18T06:35:54;98203.19;;;19.98;77.14
81155;BME280;70631;50.436;7.826;2023-09-18T06:38:19;98201.06;;;20.00;76.89
81155;BME280;70631;50.436;7.826;2023-09-18T06:40:46;98208.50;;;20.04;76.86
81155;BME280;70631;50.436;7.826;2023-09-18T06:43:11;98203.69;;;20.06;76.65
81155;BME280;70631;50.436;7.826;2023-09-18T06:45:36;98216.50;;;20.11;76.47
81155;BME280;70631;50.436;7.826;2023-09-18T06:48:03;98217.69;;;20.15;76.22
81155;BME280;70631;50.436;7.826;2023-09-18T06:50:29;98212.44;;;20.20;75.55
81155;BME280;70631;50.436;7.826;2023-09-18T06:52:54;98222.44;;;20.20;75.56
81155;BME280;70631;50.436;7.826;2023-09-18T06:55:19;98226.69;;;20.27;75.37
81155;BME280;70631;50.436;7.826;2023-09-18T06:57:45;98232.47;;;20.31;74.86
81155;BME280;70631;50.436;7.826;2023-09-18T07:00:11;98219.88;;;20.36;74.92
81155;BME280;70631;50.436;7.826;2023-09-18T07:02:36;98234.56;;;20.47;74.69
81155;BME280;70631;50.436;7.826;2023-09-18T07:05:02;98235.88;;;20.56;74.11
81155;BME280;70631;50.436;7.826;2023-09-18T07:07:27;98237.69;;;20.62;73.51
81155;BME280;70631;50.436;7.826;2023-09-18T07:09:53;98234.28;;;20.67;73.83
81155;BME280;70631;50.436;7.826;2023-09-18T07:12:18;98221.91;;;20.71;73.25
81155;BME280;70631;50.436;7.826;2023-09-18T07:14:45;98232.88;;;20.76;73.05
81155;BME280;70631;50.436;7.826;2023-09-18T07:17:10;98238.19;;;20.83;73.09
81155;BME280;70631;50.436;7.826;2023-09-18T07:19:35;98239.38;;;20.87;72.88
81155;BME280;70631;50.436;7.826;2023-09-18T07:22:01;98233.25;;;20.91;72.72
81155;BME280;70631;50.436;7.826;2023-09-18T07:24:27;98241.72;;;20.95;72.97
81155;BME280;70631;50.436;7.826;2023-09-18T07:26:52;98239.84;;;20.95;72.38
81155;BME280;70631;50.436;7.826;2023-09-18T07:29:18;98252.69;;;21.00;72.44
81155;BME280;70631;50.436;7.826;2023-09-18T07:31:43;98261.03;;;20.98;72.36
81155;BME280;70631;50.436;7.826;2023-09-18T07:34:09;98268.09;;;20.99;72.16
81155;BME280;70631;50.436;7.826;2023-09-18T07:36:35;98267.28;;;20.99;71.93
81155;BME280;70631;50.436;7.826;2023-09-18T07:39:00;98265.63;;;20.98;71.87
81155;BME280;70631;50.436;7.826;2023-09-18T07:41:25;98281.19;;;21.02;71.80
81155;BME280;70631;50.436;7.826;2023-09-18T07:43:51;98283.88;;;21.02;71.48
81155;BME280;70631;50.436;7.826;2023-09-18T07:46:16;98288.03;;;21.05;71.96
81155;BME280;70631;50.436;7.826;2023-09-18T07:48:41;98276.16;;;21.06;71.40
81155;BME280;70631;50.436;7.826;2023-09-18T07:51:10;98269.66;;;21.07;71.66
81155;BME280;70631;50.436;7.826;2023-09-18T07:53:36;98276.16;;;21.18;70.91
81155;BME280;70631;50.436;7.826;2023-09-18T07:56:01;98272.53;;;21.24;70.79
81155;BME280;70631;50.436;7.826;2023-09-18T07:58:28;98277.25;;;21.28;70.98
81155;BME280;70631;50.436;7.826;2023-09-18T08:00:55;98282.09;;;21.38;70.66
81155;BME280;70631;50.436;7.826;2023-09-18T08:03:20;98297.78;;;21.48;70.20
81155;BME280;70631;50.436;7.826;2023-09-18T08:05:49;98304.84;;;21.49;69.96
81155;BME280;70631;50.436;7.826;2023-09-18T08:08:14;98319.09;;;21.56;69.81
81155;BME280;70631;50.436;7.826;2023-09-18T08:10:40;98317.31;;;21.61;69.32
81155;BME280;70631;50.436;7.826;2023-09-18T08:13:05;98321.34;;;21.59;69.02
81155;BME280;70631;50.436;7.826;2023-09-18T08:15:31;98320.28;;;21.60;69.07
81155;BME280;70631;50.436;7.826;2023-09-18T08:17:56;98332.19;;;21.59;69.28
81155;BME280;70631;50.436;7.826;2023-09-18T08:20:22;98323.22;;;21.58;69.40
81155;BME280;70631;50.436;7.826;2023-09-18T08:22:47;98315.09;;;21.58;68.82
81155;BME280;70631;50.436;7.826;2023-09-18T08:25:13;98324.53;;;21.56;69.10
81155;BME280;70631;50.436;7.826;2023-09-18T08:27:39;98338.66;;;21.58;69.00
81155;BME280;70631;50.436;7.826;2023-09-18T08:30:13;98343.50;;;21.56;68.78
81155;BME280;70631;50.436;7.826;2023-09-18T08:32:39;98343.63;;;21.49;69.22
81155;BME280;70631;50.436;7.826;2023-09-18T08:35:05;98362.22;;;21.46;69.33
81155;BME280;70631;50.436;7.826;2023-09-18T08:37:30;98361.16;;;21.47;69.59
81155;BME280;70631;50.436;7.826;2023-09-18T08:39:56;98348.09;;;21.55;69.05
81155;BME280;70631;50.436;7.826;2023-09-18T08:42:21;98340.91;;;21.61;69.19
81155;BME280;70631;50.436;7.826;2023-09-18T08:44:49;98326.16;;;21.69;68.62
81155;BME280;70631;50.436;7.826;2023-09-18T08:47:16;98326.53;;;21.72;68.51
81155;BME280;70631;50.436;7.826;2023-09-18T08:49:43;98350.13;;;21.72;68.19
81155;BME280;70631;50.436;7.826;2023-09-18T08:52:10;98351.84;;;21.66;67.84
81155;BME280;70631;50.436;7.826;2023-09-18T08:54:36;98350.44;;;21.63;68.52
81155;BME280;70631;50.436;7.826;2023-09-18T08:57:03;98346.44;;;21.66;68.48
81155;BME280;70631;50.436;7.826;2023-09-18T08:59:33;98343.47;;;21.67;68.35
81155;BME280;70631;50.436;7.826;2023-09-18T09:02:00;98341.59;;;21.68;68.24
81155;BME280;70631;50.436;7.826;2023-09-18T09:04:25;98339.50;;;21.70;67.90
81155;BME280;70631;50.436;7.826;2023-09-18T09:06:51;98341.75;;;21.73;68.04
81155;BME280;70631;50.436;7.826;2023-09-18T09:09:16;98355.66;;;21.77;67.96
81155;BME280;70631;50.436;7.826;2023-09-18T09:11:50;98350.47;;;21.75;68.22
81155;BME280;70631;50.436;7.826;2023-09-18T09:14:15;98364.00;;;21.87;67.80
81155;BME280;70631;50.436;7.826;2023-09-18T09:16:50;98350.81;;;21.79;67.45
81155;BME280;70631;50.436;7.826;2023-09-18T09:19:17;98362.94;;;21.88;67.25
81155;BME280;70631;50.436;7.826;2023-09-18T09:21:43;98372.03;;;21.93;67.46
81155;BME280;70631;50.436;7.826;2023-09-18T09:24:12;98358.81;;;21.97;67.39
81155;BME280;70631;50.436;7.826;2023-09-18T09:26:39;98354.31;;;22.03;67.17
81155;BME280;70631;50.436;7.826;2023-09-18T09:29:18;98351.28;;;22.11;66.93
81155;BME280;70631;50.436;7.826;2023-09-18T09:31:44;98370.13;;;22.29;66.85
81155;BME280;70631;50.436;7.826;2023-09-18T09:34:24;98363.53;;;22.25;65.93
81155;BME280;70631;50.436;7.826;2023-09-18T09:36:52;98366.34;;;22.30;66.46
81155;BME280;70631;50.436;7.826;2023-09-18T09:39:18;98362.78;;;22.41;66.05
81155;BME280;70631;50.436;7.826;2023-09-18T09:41:45;98347.19;;;22.48;65.66
81155;BME280;70631;50.436;7.826;2023-09-18T09:44:13;98353.19;;;22.50;65.57
81155;BME280;70631;50.436;7.826;2023-09-18T09:46:45;98345.19;;;22.44;65.39
81155;BME280;70631;50.436;7.826;2023-09-18T09:49:10;98347.09;;;22.43;65.52
81155;BME280;70631;50.436;7.826;2023-09-18T09:51:36;98340.09;;;22.47;65.58
81155;BME280;70631;50.436;7.826;2023-09-18T09:54:01;98356.41;;;22.47;65.17
81155;BME280;70631;50.436;7.826;2023-09-18T09:56:49;98359.97;;;22.36;65.61
81155;BME280;70631;50.436;7.826;2023-09-18T09:59:16;98352.28;;;22.45;65.50
81155;BME280;70631;50.436;7.826;2023-09-18T10:01:46;98369.53;;;22.39;64.64
81155;BME280;70631;50.436;7.826;2023-09-18T10:04:16;98368.81;;;22.32;64.93
81155;BME280;70631;50.436;7.826;2023-09-18T10:06:51;98380.41;;;22.27;64.96
81155;BME280;70631;50.436;7.826;2023-09-18T10:09:17;98376.03;;;22.26;65.06
81155;BME280;70631;50.436;7.826;2023-09-18T10:11:46;98372.72;;;22.24;65.35
81155;BME280;70631;50.436;7.826;2023-09-18T10:14:18;98352.66;;;22.25;64.91
81155;BME280;70631;50.436;7.826;2023-09-18T10:16:46;98366.47;;;22.23;65.57
81155;BME280;70631;50.436;7.826;2023-09-18T10:19:24;98371.09;;;22.23;65.71
81155;BME280;70631;50.436;7.826;2023-09-18T10:22:01;98388.69;;;22.20;65.43
81155;BME280;70631;50.436;7.826;2023-09-18T10:24:34;98376.66;;;22.16;65.35
81155;BME280;70631;50.436;7.826;2023-09-18T10:27:04;98389.41;;;22.16;65.25
81155;BME280;70631;50.436;7.826;2023-09-18T10:29:33;98395.31;;;22.13;65.63
81155;BME280;70631;50.436;7.826;2023-09-18T10:31:58;98396.34;;;22.23;65.71
81155;BME280;70631;50.436;7.826;2023-09-18T10:34:24;98405.16;;;22.31;65.34
81155;BME280;70631;50.436;7.826;2023-09-18T10:36:52;98403.03;;;22.33;65.09
81155;BME280;70631;50.436;7.826;2023-09-18T10:39:18;98403.84;;;22.33;65.55
81155;BME280;70631;50.436;7.826;2023-09-18T10:41:52;98405.31;;;22.24;65.38
81155;BME280;70631;50.436;7.826;2023-09-18T10:44:18;98404.72;;;22.10;65.74
81155;BME280;70631;50.436;7.826;2023-09-18T10:46:48;98398.56;;;22.03;65.49
81155;BME280;70631;50.436;7.826;2023-09-18T10:49:14;98398.13;;;22.06;65.46
81155;BME280;70631;50.436;7.826;2023-09-18T10:51:40;98397.38;;;21.99;65.84
81155;BME280;70631;50.436;7.826;2023-09-18T10:54:08;98401.63;;;21.95;66.45
81155;BME280;70631;50.436;7.826;2023-09-18T10:56:34;98401.50;;;22.02;66.52
81155;BME280;70631;50.436;7.826;2023-09-18T10:59:00;98397.53;;;22.16;66.37
81155;BME280;70631;50.436;7.826;2023-09-18T11:01:27;98390.09;;;22.23;65.67
81155;BME280;70631;50.436;7.826;2023-09-18T11:03:58;98382.53;;;22.37;65.11
81155;BME280;70631;50.436;7.826;2023-09-18T11:06:25;98377.28;;;22.59;64.70
81155;BME280;70631;50.436;7.826;2023-09-18T11:08:59;98375.53;;;22.81;64.60
81155;BME280;70631;50.436;7.826;2023-09-18T11:11:27;98366.72;;;23.02;63.67
81155;BME280;70631;50.436;7.826;2023-09-18T11:13:55;98367.06;;;23.06;63.33
81155;BME280;70631;50.436;7.826;2023-09-18T11:21:25;98372.78;;;23.38;62.89
81155;BME280;70631;50.436;7.826;2023-09-18T11:24:01;98386.38;;;23.38;62.20
81155;BME280;70631;50.436;7.826;2023-09-18T11:26:36;98382.34;;;23.40;62.49
81155;BME280;70631;50.436;7.826;2023-09-18T11:29:09;98382.19;;;23.47;62.51
81155;BME280;70631;50.436;7.826;2023-09-18T11:31:46;98377.91;;;23.51;61.31
81155;BME280;70631;50.436;7.826;2023-09-18T11:34:28;98375.19;;;23.51;61.82
81155;BME280;70631;50.436;7.826;2023-09-18T11:36:54;98371.25;;;23.75;60.98
81155;BME280;70631;50.436;7.826;2023-09-18T11:39:39;98371.81;;;23.77;61.03
81155;BME280;70631;50.436;7.826;2023-09-18T11:42:13;98372.03;;;24.10;61.18
81155;BME280;70631;50.436;7.826;2023-09-18T11:44:40;98363.53;;;24.45;59.75
81155;BME280;70631;50.436;7.826;2023-09-18T11:47:13;98366.16;;;25.05;59.13
81155;BME280;70631;50.436;7.826;2023-09-18T11:49:46;98362.13;;;25.40;57.31
81155;BME280;70631;50.436;7.826;2023-09-18T11:52:16;98361.22;;;25.61;57.36
81155;BME280;70631;50.436;7.826;2023-09-18T11:54:42;98361.13;;;25.83;56.43
81155;BME280;70631;50.436;7.826;2023-09-18T11:57:08;98356.31;;;26.00;55.08
81155;BME280;70631;50.436;7.826;2023-09-18T11:59:38;98359.09;;;26.05;54.91
81155;BME280;70631;50.436;7.826;2023-09-18T12:02:04;98350.34;;;26.03;55.18
81155;BME280;70631;50.436;7.826;2023-09-18T12:04:31;98349.84;;;26.16;54.24
81155;BME280;70631;50.436;7.826;2023-09-18T12:06:58;98361.53;;;26.54;53.58
81155;BME280;70631;50.436;7.826;2023-09-18T12:09:26;98369.53;;;26.71;53.14
81155;BME280;70631;50.436;7.826;2023-09-18T12:11:52;98376.78;;;26.40;52.82
81155;BME280;70631;50.436;7.826;2023-09-18T12:14:20;98364.84;;;26.09;53.05
81155;BME280;70631;50.436;7.826;2023-09-18T12:16:45;98376.91;;;25.76;53.99
81155;BME280;70631;50.436;7.826;2023-09-18T12:19:16;98371.72;;;25.47;55.40
81155;BME280;70631;50.436;7.826;2023-09-18T12:21:45;98369.78;;;25.43;55.70
81155;BME280;70631;50.436;7.826;2023-09-18T12:24:22;98364.22;;;25.33;55.73
81155;BME280;70631;50.436;7.826;2023-09-18T12:26:48;98361.88;;;25.41;55.48
81155;BME280;70631;50.436;7.826;2023-09-18T12:29:14;98354.97;;;25.66;54.79
81155;BME280;70631;50.436;7.826;2023-09-18T12:31:40;98366.63;;;25.88;55.06
81155;BME280;70631;50.436;7.826;2023-09-18T12:34:14;98369.13;;;25.95;54.83
81155;BME280;70631;50.436;7.826;2023-09-18T12:36:42;98372.50;;;26.12;54.18
81155;BME280;70631;50.436;7.826;2023-09-18T12:39:08;98371.69;;;26.11;54.16
81155;BME280;70631;50.436;7.826;2023-09-18T12:41:34;98364.53;;;26.47;53.37
81155;BME280;70631;50.436;7.826;2023-09-18T12:44:00;98358.34;;;26.83;53.36
81155;BME280;70631;50.436;7.826;2023-09-18T12:46:26;98370.63;;;26.75;52.11
81155;BME280;70631;50.436;7.826;2023-09-18T12:48:51;98370.34;;;26.71;52.40
81155;BME280;70631;50.436;7.826;2023-09-18T12:51:16;98353.53;;;27.15;51.63
81155;BME280;70631;50.436;7.826;2023-09-18T12:53:47;98348.63;;;27.58;50.40
81155;BME280;70631;50.436;7.826;2023-09-18T12:56:13;98345.91;;;27.63;49.51
81155;BME280;70631;50.436;7.826;2023-09-18T12:58:40;98336.31;;;27.50;48.86
81155;BME280;70631;50.436;7.826;2023-09-18T13:01:09;98339.88;;;27.20;48.87
81155;BME280;70631;50.436;7.826;2023-09-18T13:03:46;98333.81;;;27.03;49.29